Time;durP1;ratioP1;P1;durP2;ratioP2;P2;SDS_P1;SDS_P2;PMS_P1;PMS_P2;Temp;Humidity;BMP_temperature;BMP_pressure;BME280_temperature;BME280_humidity;BME280_pressure;Samples;Min_cycle;Max_cycle;Signal;HPM_P1;HPM_P2
2023/06/12 00:00:52;;;;;;;17.00;13.70;;;11.60;80.70;;;;;;4970726;28;20649;-65
2023/06/12 00:03:24;;;;;;;15.77;13.27;;;11.80;79.20;;;;;;4971052;28;20216;-67
2023/06/12 00:05:52;;;;;;;14.73;11.60;;;12.00;80.00;;;;;;4971017;28;20236;-68
2023/06/12 00:08:23;;;;;;;13.70;11.57;;;12.10;78.80;;;;;;4972184;28;20269;-69
2023/06/12 00:10:50;;;;;;;18.00;12.10;;;12.30;78.80;;;;;;4971582;28;20190;-68
2023/06/12 00:13:17;;;;;;;15.40;11.67;;;12.30;77.80;;;;;;4970110;28;20218;-70
2023/06/12 00:15:45;;;;;;;14.50;10.83;;;12.50;78.10;;;;;;4973181;28;20170;-71
2023/06/12 00:18:12;;;;;;;18.03;11.00;;;12.80;77.30;;;;;;4969707;28;20189;-69
2023/06/12 00:20:40;;;;;;;13.57;10.17;;;12.90;76.10;;;;;;4971520;28;20214;-70
2023/06/12 00:23:10;;;;;;;15.63;9.93;;;12.90;75.10;;;;;;4969145;28;20214;-70
2023/06/12 00:25:39;;;;;;;13.17;9.40;;;13.00;76.20;;;;;;4970953;28;20270;-69
2023/06/12 00:28:06;;;;;;;14.40;10.07;;;13.10;75.70;;;;;;4971335;28;20189;-69
2023/06/12 00:30:34;;;;;;;13.23;9.00;;;13.30;75.40;;;;;;4969468;28;20241;-68
2023/06/12 00:33:01;;;;;;;12.27;8.93;;;13.50;74.30;;;;;;4968835;28;20210;-69
2023/06/12 00:35:29;;;;;;;13.27;9.20;;;13.60;73.20;;;;;;4969600;28;20178;-69
2023/06/12 00:37:56;;;;;;;12.40;8.97;;;13.60;73.70;;;;;;4969350;28;20186;-70
2023/06/12 00:40:26;;;;;;;13.23;8.20;;;13.50;73.40;;;;;;4972930;28;20269;-70
2023/06/12 00:42:54;;;;;;;11.23;8.03;;;13.60;73.70;;;;;;4974763;28;20207;-70
2023/06/12 00:45:22;;;;;;;12.00;8.43;;;13.70;73.30;;;;;;4973638;28;20183;-68
2023/06/12 00:47:53;;;;;;;11.50;7.70;;;13.80;73.20;;;;;;4975757;28;20197;-69
2023/06/12 00:50:26;;;;;;;12.17;8.13;;;14.00;72.80;;;;;;4969598;28;20652;-70
2023/06/12 00:52:54;;;;;;;13.87;7.40;;;14.10;72.00;;;;;;4970094;28;20238;-68
2023/06/12 00:55:22;;;;;;;11.43;8.03;;;14.30;71.90;;;;;;4972345;28;20179;-69
2023/06/12 00:57:49;;;;;;;11.60;7.47;;;14.30;71.20;;;;;;4969324;28;20262;-69
2023/06/12 01:00:19;;;;;;;15.63;7.93;;;14.40;70.50;;;;;;4973019;28;20197;-69
2023/06/12 01:03:04;;;;;;;14.37;7.30;;;14.60;70.80;;;;;;4973624;28;20179;-69
2023/06/12 01:05:34;;;;;;;9.93;6.77;;;14.50;70.00;;;;;;4974304;28;20182;-69
2023/06/12 01:08:31;;;;;;;12.87;7.00;;;14.70;70.30;;;;;;4973769;28;20273;-70
2023/06/12 01:11:10;;;;;;;10.37;6.70;;;14.80;70.20;;;;;;4973110;28;20618;-70
2023/06/12 01:13:38;;;;;;;11.97;6.87;;;15.00;70.20;;;;;;4977972;28;20190;-68
2023/06/12 01:16:06;;;;;;;12.73;7.30;;;14.80;69.50;;;;;;4957442;28;20250;-69
2023/06/12 01:18:34;;;;;;;11.20;7.00;;;14.80;70.60;;;;;;4973735;28;20183;-69
2023/06/12 01:21:05;;;;;;;10.07;6.43;;;14.80;70.90;;;;;;4969136;28;20180;-70
2023/06/12 01:23:44;;;;;;;8.83;5.93;;;14.90;70.70;;;;;;4973673;28;20559;-68
2023/06/12 01:26:44;;;;;;;8.37;5.63;;;15.20;70.10;;;;;;4971561;28;20180;-71
2023/06/12 01:29:37;;;;;;;8.63;5.83;;;15.50;68.20;;;;;;4969709;28;20187;-68
2023/06/12 01:32:24;;;;;;;10.13;5.83;;;15.70;69.00;;;;;;4931907;28;20210;-70
2023/06/12 01:35:09;;;;;;;9.27;6.30;;;16.00;67.50;;;;;;4972351;28;20291;-70
2023/06/12 01:37:54;;;;;;;9.77;6.07;;;16.10;67.20;;;;;;4972253;28;20289;-68
2023/06/12 01:40:26;;;;;;;7.57;5.63;;;16.30;66.30;;;;;;4974333;28;20193;-69
2023/06/12 01:42:59;;;;;;;10.33;5.73;;;16.50;65.90;;;;;;4970540;28;20186;-70
2023/06/12 01:45:27;;;;;;;9.90;6.37;;;16.80;65.70;;;;;;4973323;28;20799;-69
2023/06/12 01:47:55;;;;;;;9.30;5.93;;;16.70;65.60;;;;;;4973185;28;20344;-68
2023/06/12 01:50:24;;;;;;;10.73;6.23;;;16.70;65.70;;;;;;4974209;28;20693;-69
2023/06/12 01:52:51;;;;;;;9.47;5.77;;;16.80;65.70;;;;;;4972491;28;20238;-70
2023/06/12 01:55:21;;;;;;;8.33;5.60;;;17.00;65.70;;;;;;4973953;28;20281;-69
2023/06/12 01:57:51;;;;;;;9.43;5.80;;;17.30;64.00;;;;;;4974279;28;20272;-69
2023/06/12 02:00:19;;;;;;;8.63;5.30;;;17.50;62.90;;;;;;4971023;28;20218;-68
2023/06/12 02:02:47;;;;;;;10.53;5.27;;;17.70;62.70;;;;;;4972779;28;20274;-68
2023/06/12 02:05:15;;;;;;;11.93;5.77;;;17.70;62.80;;;;;;4974320;28;20292;-67
2023/06/12 02:07:43;;;;;;;9.80;5.70;;;17.70;64.80;;;;;;4970528;28;20186;-70
2023/06/12 02:10:10;;;;;;;8.90;4.83;;;18.20;62.30;;;;;;4971855;28;20190;-66
2023/06/12 02:12:38;;;;;;;10.77;4.90;;;18.00;62.20;;;;;;4973241;28;20238;-65
2023/06/12 02:15:06;;;;;;;8.77;5.73;;;17.90;62.90;;;;;;4971722;28;20250;-67
2023/06/12 02:17:33;;;;;;;9.63;5.63;;;17.80;62.50;;;;;;4970258;28;20190;-67
2023/06/12 02:20:03;;;;;;;8.43;5.17;;;17.70;62.70;;;;;;4968411;28;20265;-69
2023/06/12 02:22:30;;;;;;;9.93;5.87;;;17.40;64.70;;;;;;4962520;28;20207;-67
2023/06/12 02:24:58;;;;;;;8.83;5.53;;;17.40;64.10;;;;;;4969202;28;20171;-66
2023/06/12 02:27:25;;;;;;;9.57;5.33;;;17.50;64.30;;;;;;4968833;28;20206;-67
2023/06/12 02:29:53;;;;;;;10.30;5.30;;;17.50;64.10;;;;;;4970261;28;20179;-67
2023/06/12 02:32:20;;;;;;;9.40;5.27;;;17.30;64.50;;;;;;4968757;28;20238;-66
2023/06/12 02:34:48;;;;;;;8.17;4.90;;;17.40;64.80;;;;;;4967228;28;20273;-67
2023/06/12 02:37:16;;;;;;;11.77;5.90;;;17.30;65.50;;;;;;4968646;28;20186;-68
2023/06/12 02:39:43;;;;;;;10.40;4.77;;;17.30;64.90;;;;;;4971429;28;20209;-71
2023/06/12 02:42:11;;;;;;;10.00;5.20;;;17.30;65.20;;;;;;4973141;28;20187;-67
2023/06/12 02:44:38;;;;;;;7.70;4.93;;;17.40;64.90;;;;;;4973600;28;20198;-71
2023/06/12 02:47:06;;;;;;;9.30;5.20;;;17.60;64.70;;;;;;4971153;28;20190;-66
2023/06/12 02:49:33;;;;;;;8.40;4.50;;;17.70;64.30;;;;;;4973806;28;20262;-65
2023/06/12 02:52:00;;;;;;;7.20;4.33;;;17.90;64.50;;;;;;4971659;28;20253;-70
2023/06/12 02:54:28;;;;;;;5.53;4.27;;;18.30;63.00;;;;;;4971445;28;20183;-66
2023/06/12 02:56:56;;;;;;;7.90;4.67;;;18.50;61.60;;;;;;4967630;28;20664;-66
2023/06/12 02:59:25;;;;;;;8.17;4.60;;;18.40;61.80;;;;;;4969120;28;20246;-67
2023/06/12 03:01:53;;;;;;;8.13;5.13;;;18.70;61.90;;;;;;4970791;28;20641;-69
2023/06/12 03:04:21;;;;;;;4.87;3.57;;;18.80;60.70;;;;;;4965505;28;20282;-69
2023/06/12 03:06:53;;;;;;;5.03;3.63;;;18.80;60.60;;;;;;4972410;28;20299;-69
2023/06/12 03:09:24;;;;;;;5.77;3.93;;;18.90;60.70;;;;;;4964313;28;20222;-69
2023/06/12 03:11:53;;;;;;;7.20;4.37;;;19.00;59.80;;;;;;4971500;28;20589;-69
2023/06/12 03:14:24;;;;;;;9.20;4.37;;;19.10;59.70;;;;;;4967303;28;20601;-68
2023/06/12 03:16:51;;;;;;;5.73;3.20;;;19.20;59.10;;;;;;4972548;28;20282;-66
2023/06/12 03:19:19;;;;;;;5.40;3.20;;;19.50;58.50;;;;;;4966937;28;20651;-69
2023/06/12 03:21:47;;;;;;;7.20;3.83;;;19.70;57.70;;;;;;4971378;28;20737;-70
2023/06/12 03:24:14;;;;;;;6.07;3.37;;;19.80;57.10;;;;;;4982896;28;20558;-68
2023/06/12 03:26:42;;;;;;;5.93;3.50;;;20.30;56.20;;;;;;4972018;28;20226;-67
2023/06/12 03:29:10;;;;;;;7.60;3.83;;;20.30;55.50;;;;;;4972368;28;20218;-67
2023/06/12 03:31:37;;;;;;;7.27;4.10;;;20.20;56.80;;;;;;4972633;28;20206;-70
2023/06/12 03:34:05;;;;;;;8.97;3.30;;;20.40;56.40;;;;;;4970677;28;20174;-71
2023/06/12 03:36:37;;;;;;;10.90;4.07;;;21.00;54.20;;;;;;4972339;28;20633;-67
2023/06/12 03:39:05;;;;;;;9.07;4.20;;;21.40;53.30;;;;;;4971945;28;20175;-69
2023/06/12 03:41:33;;;;;;;8.53;3.60;;;21.60;53.10;;;;;;4972380;28;20178;-70
2023/06/12 03:44:01;;;;;;;7.10;4.17;;;22.20;52.60;;;;;;4972362;28;20265;-71
2023/06/12 03:46:32;;;;;;;7.80;4.00;;;22.50;50.50;;;;;;4971089;28;20191;-69
2023/06/12 03:49:00;;;;;;;8.13;4.20;;;22.80;49.10;;;;;;4971857;28;20194;-69
2023/06/12 03:51:28;;;;;;;7.17;3.93;;;22.60;50.00;;;;;;4972603;28;20282;-69
2023/06/12 03:53:55;;;;;;;5.43;3.00;;;22.40;50.30;;;;;;4973159;28;20273;-68
2023/06/12 03:56:23;;;;;;;5.23;2.97;;;22.20;51.20;;;;;;4972887;28;20210;-67
2023/06/12 03:58:51;;;;;;;7.40;3.10;;;22.70;49.60;;;;;;4972443;28;20221;-66
2023/06/12 04:01:18;;;;;;;6.03;2.83;;;22.80;50.10;;;;;;4972622;28;20201;-70
2023/06/12 04:03:48;;;;;;;8.13;2.97;;;22.60;50.20;;;;;;4969735;28;20191;-67
2023/06/12 04:06:20;;;;;;;3.17;2.20;;;22.90;49.80;;;;;;4970114;28;20886;-70
2023/06/12 04:08:48;;;;;;;4.57;2.77;;;23.00;50.30;;;;;;4967957;28;20200;-69
2023/06/12 04:11:16;;;;;;;8.87;2.50;;;23.20;49.50;;;;;;4951097;28;20816;-69
2023/06/12 04:13:43;;;;;;;4.43;2.43;;;23.30;48.70;;;;;;4972160;28;20190;-67
2023/06/12 04:16:11;;;;;;;5.23;2.17;;;22.80;49.60;;;;;;4970163;28;20187;-70
2023/06/12 04:18:39;;;;;;;4.27;2.60;;;22.30;50.30;;;;;;4966133;28;20178;-68
2023/06/12 04:21:07;;;;;;;3.93;2.20;;;21.90;51.80;;;;;;4966696;28;20241;-67
2023/06/12 04:23:37;;;;;;;5.23;2.47;;;21.70;52.70;;;;;;4968438;28;20226;-66
2023/06/12 04:26:04;;;;;;;4.60;1.93;;;21.50;52.80;;;;;;4968691;28;20708;-66
2023/06/12 04:28:33;;;;;;;3.80;1.93;;;22.00;52.40;;;;;;4966946;28;20178;-67
2023/06/12 04:31:02;;;;;;;4.17;2.30;;;22.50;51.30;;;;;;4966845;28;20276;-66
2023/06/12 04:33:30;;;;;;;4.67;2.20;;;23.00;50.50;;;;;;4968605;28;20731;-69
2023/06/12 04:36:02;;;;;;;6.57;1.93;;;23.10;50.00;;;;;;4967788;28;20186;-66
2023/06/12 04:38:36;;;;;;;4.33;1.90;;;22.80;51.10;;;;;;4950557;28;20186;-69
2023/06/12 04:41:05;;;;;;;5.17;1.73;;;23.00;50.40;;;;;;4970322;28;20190;-70
2023/06/12 04:43:33;;;;;;;5.80;2.07;;;23.20;49.20;;;;;;4970122;28;20195;-66
2023/06/12 04:46:01;;;;;;;5.97;1.80;;;23.30;47.80;;;;;;4964112;28;20205;-70
2023/06/12 04:48:29;;;;;;;4.63;1.93;;;23.10;48.80;;;;;;4966998;28;20594;-69
2023/06/12 04:50:58;;;;;;;3.97;1.83;;;23.50;47.10;;;;;;4966978;28;20249;-68
2023/06/12 04:53:29;;;;;;;3.00;1.60;;;24.00;45.90;;;;;;4969442;28;20233;-69
2023/06/12 04:55:58;;;;;;;3.90;1.80;;;23.50;47.10;;;;;;4969187;28;20186;-69
2023/06/12 04:58:26;;;;;;;4.13;1.80;;;22.80;49.20;;;;;;4968823;28;20185;-66
2023/06/12 05:00:55;;;;;;;4.87;1.77;;;23.20;49.60;;;;;;4969140;28;20530;-65
2023/06/12 05:03:25;;;;;;;6.10;2.30;;;23.80;47.80;;;;;;4970387;28;20178;-67
2023/06/12 05:05:53;;;;;;;2.97;2.03;;;23.80;46.80;;;;;;4972167;28;20182;-67
2023/06/12 05:08:20;;;;;;;3.03;1.60;;;22.80;49.40;;;;;;4969689;28;20230;-70
2023/06/12 05:10:48;;;;;;;3.97;1.60;;;21.90;51.80;;;;;;4973283;28;20183;-66
2023/06/12 05:13:15;;;;;;;3.87;1.43;;;21.70;52.60;;;;;;4955053;28;20245;-69
2023/06/12 05:15:43;;;;;;;3.17;1.50;;;21.30;52.70;;;;;;4973101;28;20629;-69
2023/06/12 05:18:10;;;;;;;3.40;2.10;;;21.00;54.50;;;;;;4971310;28;20221;-70
2023/06/12 05:20:40;;;;;;;4.27;2.70;;;21.10;54.10;;;;;;4969715;28;20229;-70
2023/06/12 05:23:07;;;;;;;5.03;2.63;;;21.00;56.10;;;;;;4971923;28;20182;-70
2023/06/12 05:25:35;;;;;;;4.27;2.60;;;21.50;56.70;;;;;;4969088;28;20183;-69
2023/06/12 05:28:05;;;;;;;8.10;3.10;;;21.00;58.40;;;;;;4968951;28;20218;-71
2023/06/12 05:30:33;;;;;;;5.33;2.47;;;20.70;59.60;;;;;;4971841;28;20187;-70
2023/06/12 05:33:00;;;;;;;6.47;2.70;;;20.30;61.20;;;;;;4970346;28;20242;-70
2023/06/12 05:35:30;;;;;;;3.87;1.90;;;20.30;61.70;;;;;;4971832;28;20534;-68
2023/06/12 05:37:58;;;;;;;4.43;2.67;;;20.10;61.80;;;;;;4970459;28;20183;-69
2023/06/12 05:40:28;;;;;;;7.53;2.47;;;20.00;62.50;;;;;;4973187;28;20253;-65
2023/06/12 05:42:59;;;;;;;7.20;2.50;;;20.00;63.10;;;;;;4972775;28;20178;-69
2023/06/12 05:45:26;;;;;;;10.70;2.53;;;19.90;63.00;;;;;;4962424;28;20527;-67
2023/06/12 05:47:55;;;;;;;5.37;2.67;;;20.10;63.40;;;;;;4970369;28;20680;-69
2023/06/12 05:50:23;;;;;;;5.63;2.63;;;21.00;60.10;;;;;;4968879;28;20186;-69
2023/06/12 05:52:52;;;;;;;5.33;2.60;;;20.50;61.40;;;;;;4971388;28;20275;-70
2023/06/12 05:55:19;;;;;;;8.17;3.57;;;20.20;62.40;;;;;;4973106;28;20186;-69
2023/06/12 05:57:47;;;;;;;5.67;2.77;;;19.90;63.20;;;;;;4974495;28;20641;-69
2023/06/12 06:00:16;;;;;;;11.30;2.60;;;19.70;64.90;;;;;;4974931;28;20245;-70
2023/06/12 06:02:46;;;;;;;6.10;2.80;;;20.10;64.40;;;;;;4970809;28;20204;-69
2023/06/12 06:05:14;;;;;;;5.93;2.60;;;20.20;63.10;;;;;;4974393;28;20603;-68
2023/06/12 06:07:41;;;;;;;9.30;2.83;;;19.80;63.50;;;;;;4973243;28;20237;-70
2023/06/12 06:10:09;;;;;;;9.67;2.60;;;19.70;64.10;;;;;;4974106;28;20285;-70
2023/06/12 06:12:36;;;;;;;5.13;2.50;;;19.40;64.60;;;;;;4972458;28;20221;-70
2023/06/12 06:15:05;;;;;;;8.23;2.27;;;19.40;65.30;;;;;;4973446;28;20196;-70
2023/06/12 06:17:35;;;;;;;6.80;1.97;;;19.30;64.40;;;;;;4973328;28;20670;-69
2023/06/12 06:20:05;;;;;;;5.07;2.07;;;19.10;64.10;;;;;;4973578;28;20186;-71
2023/06/12 06:22:33;;;;;;;4.10;2.00;;;19.00;64.10;;;;;;4973285;28;20850;-69
2023/06/12 06:25:00;;;;;;;3.47;1.80;;;18.80;63.40;;;;;;4971712;28;20601;-70
2023/06/12 06:27:27;;;;;;;3.67;2.10;;;18.70;62.90;;;;;;4972744;28;20189;-70
2023/06/12 06:29:55;;;;;;;4.50;2.10;;;18.60;62.90;;;;;;4972630;28;20183;-71
2023/06/12 06:32:22;;;;;;;6.23;2.30;;;18.50;63.40;;;;;;4967534;28;20273;-69
2023/06/12 06:34:50;;;;;;;3.00;1.83;;;18.40;64.20;;;;;;4968000;28;20585;-68
2023/06/12 06:37:17;;;;;;;4.07;2.17;;;18.30;65.10;;;;;;4969822;28;20292;-70
2023/06/12 06:39:45;;;;;;;8.87;2.10;;;18.30;66.30;;;;;;4970778;28;20192;-71
2023/06/12 06:42:13;;;;;;;6.10;1.97;;;18.10;66.80;;;;;;4967337;28;20190;-69
2023/06/12 06:44:40;;;;;;;4.73;2.43;;;18.10;67.30;;;;;;4970533;28;20197;-72
2023/06/12 06:47:11;;;;;;;4.33;2.00;;;18.00;67.60;;;;;;4970923;28;20181;-69
2023/06/12 06:49:39;;;;;;;5.97;2.77;;;18.00;67.70;;;;;;4968661;28;20229;-68
2023/06/12 06:52:07;;;;;;;4.60;2.20;;;17.90;67.40;;;;;;4972747;28;20258;-69
2023/06/12 06:54:34;;;;;;;5.27;2.37;;;17.90;67.30;;;;;;4973143;28;20557;-68
2023/06/12 06:57:01;;;;;;;5.00;2.40;;;17.80;67.60;;;;;;4971836;28;20323;-69
2023/06/12 06:59:29;;;;;;;5.43;2.80;;;17.80;68.30;;;;;;4970367;28;20186;-66
2023/06/12 07:01:56;;;;;;;9.17;4.50;;;17.70;69.00;;;;;;4972987;28;20186;-70
2023/06/12 07:04:23;;;;;;;9.17;4.30;;;17.60;70.00;;;;;;4973092;28;20183;-71
2023/06/12 07:06:51;;;;;;;8.07;4.43;;;17.50;71.40;;;;;;4972822;28;20265;-70
2023/06/12 07:09:18;;;;;;;7.37;4.17;;;17.50;72.30;;;;;;4970373;28;20269;-67
2023/06/12 07:11:46;;;;;;;18.80;5.07;;;17.30;73.20;;;;;;4972570;28;20225;-70
2023/06/12 07:14:13;;;;;;;15.00;4.77;;;17.30;73.90;;;;;;4973284;28;20194;-70
2023/06/12 07:16:41;;;;;;;9.47;4.73;;;17.20;74.30;;;;;;4972118;28;20683;-70
2023/06/12 07:19:08;;;;;;;8.47;4.40;;;17.20;75.00;;;;;;4973035;28;20194;-70
2023/06/12 07:21:36;;;;;;;13.10;4.13;;;17.10;75.50;;;;;;4971507;28;20587;-69
2023/06/12 07:24:05;;;;;;;8.87;4.63;;;17.10;75.70;;;;;;4980715;28;20190;-65
2023/06/12 07:26:32;;;;;;;9.93;3.97;;;17.00;75.90;;;;;;4971645;28;20215;-66
2023/06/12 07:28:59;;;;;;;10.20;4.53;;;16.90;76.10;;;;;;4972511;28;20265;-68
2023/06/12 07:31:27;;;;;;;10.30;4.10;;;16.90;76.30;;;;;;4973436;28;20197;-70
2023/06/12 07:33:55;;;;;;;10.73;4.60;;;16.80;76.50;;;;;;4971133;28;20205;-67
2023/06/12 07:36:22;;;;;;;7.80;4.30;;;16.80;76.80;;;;;;4968784;28;20182;-68
2023/06/12 07:38:49;;;;;;;13.03;4.37;;;16.70;76.90;;;;;;4971117;28;20226;-69
2023/06/12 07:41:17;;;;;;;9.03;4.53;;;16.70;77.30;;;;;;4971058;28;20193;-66
2023/06/12 07:43:44;;;;;;;9.17;4.00;;;16.70;77.60;;;;;;4970854;28;20186;-68
2023/06/12 07:46:11;;;;;;;8.17;4.03;;;16.70;78.40;;;;;;4973081;28;20281;-66
2023/06/12 07:48:39;;;;;;;9.17;4.00;;;16.70;79.30;;;;;;4971935;28;20200;-66
2023/06/12 07:51:07;;;;;;;15.43;4.67;;;16.70;80.20;;;;;;4971071;28;20276;-68
2023/06/12 07:53:34;;;;;;;10.50;4.57;;;16.70;80.60;;;;;;4970702;28;20335;-70
2023/06/12 07:56:02;;;;;;;9.67;5.00;;;16.70;81.10;;;;;;4968183;28;20182;-65
2023/06/12 07:58:30;;;;;;;13.93;4.50;;;16.70;81.50;;;;;;4968077;28;20194;-70
2023/06/12 08:00:58;;;;;;;8.53;4.93;;;16.60;81.70;;;;;;4969717;28;20183;-65
2023/06/12 08:03:26;;;;;;;11.73;5.23;;;16.70;82.20;;;;;;4969646;28;20183;-68
2023/06/12 08:05:53;;;;;;;13.37;4.60;;;16.60;82.40;;;;;;4972866;28;20276;-66
2023/06/12 08:08:22;;;;;;;15.00;4.90;;;16.60;82.50;;;;;;4973233;28;20185;-66
2023/06/12 08:10:49;;;;;;;9.27;4.60;;;16.60;82.50;;;;;;4967698;28;20257;-68
2023/06/12 08:13:16;;;;;;;10.00;4.80;;;16.50;82.60;;;;;;4967530;28;20686;-65
2023/06/12 08:15:44;;;;;;;14.87;6.57;;;16.50;82.60;;;;;;4970874;28;20655;-68
2023/06/12 08:18:11;;;;;;;11.00;5.77;;;16.40;82.80;;;;;;4968179;28;20704;-68
2023/06/12 08:20:38;;;;;;;10.77;6.37;;;16.40;82.80;;;;;;4966289;28;20186;-69
2023/06/12 08:23:06;;;;;;;19.47;9.67;;;16.40;82.70;;;;;;4963433;28;20672;-69
2023/06/12 08:25:33;;;;;;;13.13;5.73;;;16.40;82.60;;;;;;4953374;28;20191;-65
2023/06/12 08:28:00;;;;;;;11.27;5.43;;;16.40;82.40;;;;;;4966007;28;20202;-66
2023/06/12 08:30:28;;;;;;;9.27;5.60;;;16.30;82.30;;;;;;4969088;28;20178;-66
2023/06/12 08:32:55;;;;;;;12.90;5.27;;;16.40;82.30;;;;;;4966517;28;20232;-68
2023/06/12 08:35:23;;;;;;;9.53;5.37;;;16.30;82.40;;;;;;4967606;28;20186;-64
2023/06/12 08:37:53;;;;;;;11.20;6.43;;;16.40;82.60;;;;;;4968304;28;20189;-66
2023/06/12 08:40:20;;;;;;;12.33;5.97;;;16.40;82.80;;;;;;4971421;28;20196;-66
2023/06/12 08:42:51;;;;;;;14.93;6.17;;;16.40;82.80;;;;;;4969276;28;20569;-66
2023/06/12 08:45:20;;;;;;;18.33;5.77;;;16.40;82.90;;;;;;4972952;28;20193;-66
2023/06/12 08:47:49;;;;;;;11.50;5.40;;;16.40;82.80;;;;;;4972292;28;20193;-67
2023/06/12 08:50:20;;;;;;;6.83;5.37;;;16.30;82.50;;;;;;4973960;28;20186;-66
2023/06/12 08:52:50;;;;;;;9.37;5.63;;;16.30;82.10;;;;;;4970254;28;20251;-65
2023/06/12 08:55:18;;;;;;;10.83;6.10;;;16.30;81.80;;;;;;4971891;28;20209;-67
2023/06/12 08:57:47;;;;;;;12.20;5.50;;;16.30;81.60;;;;;;4973564;28;20184;-66
2023/06/12 09:00:15;;;;;;;9.97;6.03;;;16.30;81.20;;;;;;4971219;28;20270;-65
2023/06/12 09:02:51;;;;;;;11.67;6.37;;;16.30;81.10;;;;;;4971039;28;20728;-67
2023/06/12 09:05:27;;;;;;;9.33;6.07;;;16.30;81.20;;;;;;4970782;28;20687;-67
2023/06/12 09:07:55;;;;;;;9.63;6.57;;;16.30;81.20;;;;;;4970231;28;20203;-66
2023/06/12 09:10:22;;;;;;;15.87;6.37;;;16.30;81.20;;;;;;4972031;28;20344;-66
2023/06/12 09:12:54;;;;;;;12.70;6.13;;;16.30;81.30;;;;;;4968804;28;20681;-67
2023/06/12 09:15:22;;;;;;;12.00;6.23;;;16.30;81.20;;;;;;4971360;28;20698;-66
2023/06/12 09:17:51;;;;;;;12.83;6.70;;;16.20;81.30;;;;;;4967902;28;20186;-64
2023/06/12 09:20:32;;;;;;;10.43;6.33;;;16.20;81.40;;;;;;4971344;28;20547;-66
2023/06/12 09:23:07;;;;;;;12.33;6.90;;;16.20;81.50;;;;;;4969830;28;20198;-66
2023/06/12 09:25:36;;;;;;;13.87;6.60;;;16.10;81.60;;;;;;4974266;28;20209;-65
2023/06/12 09:28:04;;;;;;;11.77;7.27;;;16.10;81.80;;;;;;4971887;28;20199;-66
2023/06/12 09:30:42;;;;;;;12.27;7.33;;;16.10;81.90;;;;;;4974053;28;20195;-66
2023/06/12 09:33:10;;;;;;;10.00;7.37;;;16.10;82.00;;;;;;4974928;28;20226;-65
2023/06/12 09:35:54;;;;;;;10.87;6.57;;;16.10;82.00;;;;;;4975791;28;20189;-65
2023/06/12 09:38:35;;;;;;;15.33;7.23;;;16.00;82.00;;;;;;4974012;28;20285;-65
2023/06/12 09:41:04;;;;;;;10.60;6.93;;;16.00;82.10;;;;;;4974869;28;20766;-66
2023/06/12 09:43:32;;;;;;;10.27;7.17;;;16.00;82.20;;;;;;4975532;28;20717;-65
2023/06/12 09:46:08;;;;;;;14.67;7.70;;;16.00;82.30;;;;;;4972499;28;20330;-65
2023/06/12 09:48:37;;;;;;;9.73;6.73;;;16.00;82.20;;;;;;4970449;28;20186;-65
2023/06/12 09:51:09;;;;;;;11.17;6.73;;;16.00;82.20;;;;;;4972869;28;20198;-66
2023/06/12 09:53:39;;;;;;;12.90;6.67;;;16.00;82.30;;;;;;4994593;28;20232;-66
2023/06/12 09:56:08;;;;;;;11.10;7.10;;;16.00;82.20;;;;;;4974219;28;20185;-65
2023/06/12 09:58:38;;;;;;;11.43;6.83;;;16.00;82.30;;;;;;4974160;28;20187;-66
2023/06/12 10:01:07;;;;;;;10.93;6.20;;;16.00;82.20;;;;;;4975027;28;20590;-65
2023/06/12 10:03:39;;;;;;;9.27;5.27;;;15.90;82.20;;;;;;4975459;28;20643;-66
2023/06/12 10:06:09;;;;;;;9.83;5.30;;;15.90;82.00;;;;;;4974001;28;20285;-66
2023/06/12 10:08:37;;;;;;;9.30;5.73;;;15.90;82.00;;;;;;4974899;28;20189;-67
2023/06/12 10:11:06;;;;;;;11.73;6.53;;;15.90;82.00;;;;;;4968914;28;20609;-68
2023/06/12 10:13:36;;;;;;;12.60;6.10;;;16.00;82.10;;;;;;4974703;28;20268;-65
2023/06/12 10:16:05;;;;;;;9.87;5.93;;;16.00;82.00;;;;;;4973211;28;20696;-67
2023/06/12 10:18:33;;;;;;;9.47;5.77;;;16.00;82.00;;;;;;4967081;28;20194;-66
2023/06/12 10:21:02;;;;;;;6.80;5.67;;;16.00;82.10;;;;;;4988771;28;20537;-69
2023/06/12 10:23:31;;;;;;;15.50;5.80;;;16.00;82.00;;;;;;4975145;28;20694;-65
2023/06/12 10:25:59;;;;;;;8.07;6.00;;;16.00;82.10;;;;;;4970609;28;20189;-65
2023/06/12 10:28:28;;;;;;;10.27;6.17;;;16.00;82.20;;;;;;4974158;28;20206;-66
2023/06/12 10:31:18;;;;;;;15.17;7.50;;;16.00;82.50;;;;;;4973204;28;20197;-70
2023/06/12 10:34:12;;;;;;;13.30;7.20;;;16.00;82.80;;;;;;4969068;28;20675;-69
2023/06/12 10:36:43;;;;;;;13.00;7.00;;;16.00;83.20;;;;;;4972812;28;20193;-70
2023/06/12 10:39:22;;;;;;;7.87;6.13;;;16.00;83.60;;;;;;4973399;28;20200;-69
2023/06/12 10:41:55;;;;;;;9.77;6.37;;;15.90;83.40;;;;;;4974253;28;20201;-69
2023/06/12 10:44:39;;;;;;;12.13;7.10;;;15.80;83.20;;;;;;4974328;28;20305;-69
2023/06/12 10:47:17;;;;;;;10.37;7.60;;;15.80;83.40;;;;;;4972800;28;20243;-71
2023/06/12 10:50:03;;;;;;;11.97;8.20;;;15.80;83.50;;;;;;4971917;28;20191;-69
2023/06/12 10:52:31;;;;;;;9.93;8.07;;;15.80;84.00;;;;;;4971968;28;20614;-70
2023/06/12 10:55:19;;;;;;;10.90;7.60;;;15.80;84.40;;;;;;4972731;28;20186;-69
2023/06/12 10:58:06;;;;;;;13.27;7.83;;;15.80;84.70;;;;;;4972853;28;20197;-70
2023/06/12 11:00:36;;;;;;;11.03;7.80;;;15.80;84.80;;;;;;4971781;28;20189;-69
2023/06/12 11:03:03;;;;;;;11.97;7.53;;;15.70;85.00;;;;;;4971179;28;20195;-67
2023/06/12 11:05:32;;;;;;;11.67;7.77;;;15.70;85.00;;;;;;4973478;28;20666;-66
2023/06/12 11:08:05;;;;;;;9.90;7.47;;;15.70;85.20;;;;;;4971830;28;20182;-68
2023/06/12 11:10:34;;;;;;;12.03;7.60;;;15.70;85.40;;;;;;4973008;28;20197;-68
2023/06/12 11:13:03;;;;;;;11.43;7.73;;;15.70;85.60;;;;;;4972520;28;20226;-70
2023/06/12 11:15:36;;;;;;;9.00;7.90;;;15.70;85.70;;;;;;4973481;28;20651;-70
2023/06/12 11:18:03;;;;;;;10.93;8.10;;;15.70;85.80;;;;;;4971594;28;20221;-69
2023/06/12 11:20:33;;;;;;;8.33;7.43;;;15.70;85.80;;;;;;4973323;28;20195;-70
2023/06/12 11:23:01;;;;;;;8.60;7.80;;;15.60;86.00;;;;;;4971717;28;20194;-69
2023/06/12 11:25:42;;;;;;;9.10;8.20;;;15.70;86.10;;;;;;4972879;28;20233;-70
2023/06/12 11:28:11;;;;;;;10.63;7.43;;;15.60;86.30;;;;;;4972443;28;20651;-67
2023/06/12 11:30:40;;;;;;;9.30;8.00;;;15.60;86.60;;;;;;4972923;28;20185;-69
2023/06/12 11:33:15;;;;;;;9.40;8.37;;;15.60;86.80;;;;;;4971975;28;20269;-69
2023/06/12 11:35:43;;;;;;;8.43;7.43;;;15.70;87.00;;;;;;4971657;28;20281;-71
2023/06/12 11:38:15;;;;;;;9.83;7.87;;;15.60;86.80;;;;;;4970253;28;20202;-66
2023/06/12 11:40:43;;;;;;;13.00;7.20;;;15.70;87.10;;;;;;4965913;28;20197;-68
2023/06/12 11:43:11;;;;;;;9.40;7.50;;;15.60;86.70;;;;;;4965391;28;20544;-66
2023/06/12 11:45:41;;;;;;;9.53;7.80;;;15.60;86.50;;;;;;4968153;28;20222;-67
2023/06/12 11:48:16;;;;;;;7.70;6.93;;;15.60;86.50;;;;;;4968119;28;20332;-69
2023/06/12 11:50:54;;;;;;;10.87;7.90;;;15.50;86.20;;;;;;4963963;28;20736;-68
2023/06/12 11:53:21;;;;;;;7.37;6.57;;;15.50;85.80;;;;;;4970965;28;20237;-69
2023/06/12 11:55:56;;;;;;;8.67;6.07;;;15.40;85.20;;;;;;4972858;28;20238;-69
2023/06/12 11:58:39;;;;;;;6.67;5.60;;;15.40;84.90;;;;;;4973589;28;20613;-69
2023/06/12 12:01:15;;;;;;;7.83;6.20;;;15.50;84.40;;;;;;4972913;28;20208;-68
2023/06/12 12:03:47;;;;;;;6.93;5.57;;;15.50;84.10;;;;;;4973492;28;20193;-70
2023/06/12 12:06:15;;;;;;;10.97;5.67;;;15.50;83.90;;;;;;4970831;28;20204;-68
2023/06/12 12:08:43;;;;;;;7.60;5.37;;;15.60;83.90;;;;;;4969466;28;20186;-68
2023/06/12 12:11:22;;;;;;;6.07;5.23;;;15.60;83.20;;;;;;4967546;28;20195;-68
2023/06/12 12:14:06;;;;;;;8.03;5.43;;;15.60;83.00;;;;;;4968879;28;20271;-67
2023/06/12 12:16:47;;;;;;;6.10;5.50;;;15.70;82.80;;;;;;4967605;28;20183;-68
2023/06/12 12:19:25;;;;;;;5.80;4.87;;;15.70;83.00;;;;;;4965039;28;20182;-68
2023/06/12 12:21:53;;;;;;;6.67;4.93;;;15.70;83.10;;;;;;4968248;28;20186;-68
2023/06/12 12:24:20;;;;;;;6.60;5.40;;;15.70;83.10;;;;;;4970514;28;20204;-69
2023/06/12 12:26:53;;;;;;;5.73;5.23;;;15.60;83.00;;;;;;4970037;28;20696;-70
2023/06/12 12:29:21;;;;;;;8.37;6.10;;;15.70;83.20;;;;;;4964255;28;20197;-68
2023/06/12 12:31:49;;;;;;;9.30;6.97;;;15.60;83.40;;;;;;4967843;28;20182;-69
2023/06/12 12:34:16;;;;;;;7.73;6.70;;;15.60;83.80;;;;;;4964445;28;20641;-68
2023/06/12 12:36:45;;;;;;;9.10;6.60;;;15.60;84.10;;;;;;4970389;28;20184;-67
2023/06/12 12:39:12;;;;;;;7.97;5.97;;;15.60;84.10;;;;;;4970127;28;20224;-68
2023/06/12 12:41:40;;;;;;;9.03;6.03;;;15.50;84.00;;;;;;4971030;28;20266;-68
2023/06/12 12:44:07;;;;;;;9.13;5.77;;;15.50;84.10;;;;;;4970119;28;20209;-65
2023/06/12 12:46:35;;;;;;;7.97;5.53;;;15.50;84.20;;;;;;4968767;28;20191;-68
2023/06/12 12:49:02;;;;;;;8.07;5.20;;;15.50;84.10;;;;;;4969759;28;20207;-65
2023/06/12 12:51:29;;;;;;;6.33;5.40;;;15.40;84.10;;;;;;4967778;28;20192;-65
2023/06/12 12:53:57;;;;;;;6.43;5.83;;;15.40;84.20;;;;;;4971502;28;20710;-65
2023/06/12 12:56:24;;;;;;;7.97;7.07;;;15.40;84.80;;;;;;4968817;28;20280;-66